Time;durP1;ratioP1;P1;durP2;ratioP2;P2;SDS_P1;SDS_P2;PMS_P1;PMS_P2;Temp;Humidity;BMP_temperature;BMP_pressure;BME280_temperature;BME280_humidity;BME280_pressure;Samples;Min_cycle;Max_cycle;Signal;HPM_P1;HPM_P2
2023/05/31 00:00:45;;;;;;;10.10;9.10;;;;;;;9.84;100.00;102413.44;5091794;28;20015;-45
2023/05/31 00:03:10;;;;;;;10.43;9.32;;;;;;;9.83;100.00;102420.25;5092491;28;20046;-47
2023/05/31 00:05:36;;;;;;;10.63;9.52;;;;;;;9.83;100.00;102420.25;5092141;28;20042;-45
2023/05/31 00:08:01;;;;;;;10.93;9.70;;;;;;;9.84;100.00;102416.00;5095077;28;20016;-45
2023/05/31 00:10:26;;;;;;;11.30;9.55;;;;;;;9.81;100.00;102415.81;5095715;28;20111;-45
2023/05/31 00:12:52;;;;;;;12.55;9.38;;;;;;;9.84;100.00;102419.44;5096116;28;20043;-44
2023/05/31 00:15:17;;;;;;;10.75;9.45;;;;;;;9.80;100.00;102417.50;5095067;28;20426;-45
2023/05/31 00:17:42;;;;;;;13.85;10.00;;;;;;;9.81;100.00;102419.28;5096121;28;20032;-46
2023/05/31 00:20:08;;;;;;;10.70;9.10;;;;;;;9.78;100.00;102424.25;5095742;28;20044;-45
2023/05/31 00:22:33;;;;;;;12.05;10.13;;;;;;;9.79;100.00;102423.44;5094865;28;20408;-45
2023/05/31 00:24:59;;;;;;;10.68;9.45;;;;;;;9.74;100.00;102414.56;5095677;28;20048;-44
2023/05/31 00:27:25;;;;;;;10.63;9.43;;;;;;;9.79;100.00;102418.31;5095218;28;20111;-45
2023/05/31 00:29:50;;;;;;;10.30;9.20;;;;;;;9.71;100.00;102411.81;5095493;28;20471;-45
2023/05/31 00:32:15;;;;;;;10.70;9.68;;;;;;;9.69;100.00;102418.56;5095172;28;20042;-47
2023/05/31 00:34:41;;;;;;;9.98;8.98;;;;;;;9.65;100.00;102417.47;5095427;28;20024;-44
2023/05/31 00:37:06;;;;;;;10.48;9.35;;;;;;;9.64;100.00;102412.25;5094964;28;20039;-44
2023/05/31 00:39:31;;;;;;;10.93;9.80;;;;;;;9.66;100.00;102415.81;5095320;28;20020;-45
2023/05/31 00:41:56;;;;;;;11.75;10.55;;;;;;;9.60;100.00;102415.44;5095483;28;20153;-46
2023/05/31 00:44:22;;;;;;;12.13;9.52;;;;;;;9.56;100.00;102415.25;5094584;28;20448;-47
2023/05/31 00:46:47;;;;;;;14.23;10.65;;;;;;;9.54;100.00;102411.72;5095474;28;20020;-45
2023/05/31 00:49:13;;;;;;;12.63;9.43;;;;;;;9.52;100.00;102410.72;5095011;28;20071;-45
2023/05/31 00:51:38;;;;;;;11.32;10.20;;;;;;;9.51;100.00;102416.66;5094515;28;20036;-45
2023/05/31 00:54:04;;;;;;;11.40;10.30;;;;;;;9.47;100.00;102417.28;5095073;28;20545;-45
2023/05/31 00:56:30;;;;;;;11.48;10.27;;;;;;;9.47;100.00;102429.28;5094905;28;20028;-46
2023/05/31 00:58:57;;;;;;;11.45;10.25;;;;;;;9.46;100.00;102425.81;5094756;28;20024;-45
2023/05/31 01:01:26;;;;;;;12.77;10.10;;;;;;;9.43;100.00;102422.19;5094864;28;20028;-44
2023/05/31 01:03:52;;;;;;;12.32;10.80;;;;;;;9.39;100.00;102424.56;5094316;28;20024;-46
2023/05/31 01:06:18;;;;;;;11.13;9.57;;;;;;;9.38;100.00;102421.91;5094996;28;20024;-47
2023/05/31 01:08:43;;;;;;;11.80;10.18;;;;;;;9.35;100.00;102420.03;5094844;28;20043;-46
2023/05/31 01:11:35;;;;;;;10.75;9.57;;;;;;;9.35;100.00;102422.59;5094271;28;20523;-45
2023/05/31 01:14:12;;;;;;;11.73;10.07;;;;;;;9.30;100.00;102425.72;5094680;28;20495;-45
2023/05/31 01:16:42;;;;;;;;;;;;;;;9.39;100.00;102421.09;5094670;28;20032;-46
2023/05/31 01:19:17;;;;;;;11.05;9.85;;;;;;;9.27;100.00;102420.34;5092889;28;20436;-46
2023/05/31 01:22:17;;;;;;;13.23;10.32;;;;;;;9.27;100.00;102425.50;5094676;28;20399;-44
2023/05/31 01:25:01;;;;;;;15.13;10.48;;;;;;;9.17;100.00;102422.38;5067640;28;20122;-45
2023/05/31 01:27:27;;;;;;;12.38;10.88;;;;;;;9.14;100.00;102426.44;5094287;28;20491;-45
2023/05/31 01:29:52;;;;;;;11.65;10.45;;;;;;;9.13;100.00;102428.13;5094652;28;20086;-45
2023/05/31 01:32:20;;;;;;;13.52;10.00;;;;;;;9.12;100.00;102430.63;5093527;28;20529;-48
2023/05/31 01:34:46;;;;;;;12.00;10.70;;;;;;;9.12;100.00;102426.34;5094622;28;20036;-44
2023/05/31 01:37:11;;;;;;;15.52;11.00;;;;;;;9.06;100.00;102423.41;5094239;28;20024;-46
2023/05/31 01:39:37;;;;;;;12.00;10.60;;;;;;;9.05;100.00;102426.75;5093329;28;20032;-44
2023/05/31 01:42:03;;;;;;;16.65;11.43;;;;;;;9.04;100.00;102425.00;5094471;28;20020;-45
2023/05/31 01:44:29;;;;;;;11.80;10.63;;;;;;;9.02;100.00;102424.00;5093904;28;20035;-45
2023/05/31 01:46:55;;;;;;;14.77;11.43;;;;;;;8.98;100.00;102416.91;5093591;28;20028;-44
2023/05/31 01:49:21;;;;;;;12.98;11.55;;;;;;;8.92;100.00;102407.13;5094091;28;20371;-45
2023/05/31 01:51:48;;;;;;;13.43;11.57;;;;;;;8.97;100.00;102412.56;5094038;28;20028;-46
2023/05/31 01:54:13;;;;;;;14.10;11.70;;;;;;;8.93;100.00;102408.03;5093595;28;20127;-48
2023/05/31 01:56:39;;;;;;;14.63;12.20;;;;;;;8.93;100.00;102414.03;5093811;28;20455;-46
2023/05/31 01:59:06;;;;;;;13.20;11.90;;;;;;;8.90;100.00;102404.47;5093830;28;20065;-46
2023/05/31 02:01:32;;;;;;;15.73;12.20;;;;;;;8.93;100.00;102397.75;5093187;28;20375;-45
2023/05/31 02:03:58;;;;;;;15.27;12.38;;;;;;;8.90;100.00;102404.47;5093829;28;20779;-47
2023/05/31 02:06:26;;;;;;;13.65;12.07;;;;;;;8.89;100.00;102402.69;5093400;28;20020;-49
2023/05/31 02:08:52;;;;;;;14.25;12.48;;;;;;;8.93;100.00;102400.31;5093175;28;20483;-46
2023/05/31 02:11:17;;;;;;;15.85;12.23;;;;;;;8.93;100.00;102397.75;5093373;28;20077;-46
2023/05/31 02:13:42;;;;;;;14.23;12.75;;;;;;;8.92;100.00;102401.09;5093601;28;20024;-44
2023/05/31 02:16:08;;;;;;;14.68;13.07;;;;;;;8.87;100.00;102394.00;5093434;28;20028;-45
2023/05/31 02:18:35;;;;;;;14.32;12.82;;;;;;;8.87;100.00;102399.13;5093305;28;20051;-45
2023/05/31 02:21:00;;;;;;;14.68;12.00;;;;;;;8.82;100.00;102400.53;5093572;28;20074;-46
2023/05/31 02:23:26;;;;;;;16.08;13.52;;;;;;;8.85;100.00;102398.16;5092790;28;20020;-46
2023/05/31 02:25:51;;;;;;;17.40;13.32;;;;;;;8.83;100.00;102402.31;5093471;28;20020;-45
2023/05/31 02:28:17;;;;;;;14.45;12.93;;;;;;;8.83;100.00;102402.31;5092500;28;20035;-45
2023/05/31 02:30:59;;;;;;;17.02;13.93;;;;;;;8.82;100.00;102397.97;5093863;28;20024;-47
2023/05/31 02:33:26;;;;;;;20.17;14.00;;;;;;;8.84;100.00;102398.06;5093068;28;20040;-46
2023/05/31 02:35:52;;;;;;;15.75;13.98;;;;;;;8.84;100.00;102398.94;5092561;28;20020;-44
2023/05/31 02:38:19;;;;;;;17.63;14.02;;;;;;;8.84;100.00;102398.06;5092898;28;20528;-46
2023/05/31 02:40:44;;;;;;;19.42;15.02;;;;;;;8.84;100.00;102392.91;5093489;28;20375;-45
2023/05/31 02:43:10;;;;;;;18.85;14.52;;;;;;;8.84;100.00;102391.22;5092902;28;20528;-46
2023/05/31 02:45:35;;;;;;;20.95;15.27;;;;;;;8.87;100.00;102393.09;5093141;28;20055;-47
2023/05/31 02:48:04;;;;;;;17.58;13.88;;;;;;;8.83;100.00;102392.03;5093036;28;20051;-44
2023/05/31 02:50:30;;;;;;;17.23;14.98;;;;;;;8.85;100.00;102405.84;5092336;28;20364;-46
2023/05/31 02:52:55;;;;;;;19.25;14.88;;;;;;;8.83;100.00;102397.19;5093027;28;20494;-44
2023/05/31 02:55:21;;;;;;;20.17;14.65;;;;;;;8.83;100.00;102397.19;5092700;28;20031;-46
2023/05/31 02:57:46;;;;;;;17.58;14.63;;;;;;;8.81;100.00;102398.75;5092678;28;20024;-45
2023/05/31 03:00:14;;;;;;;20.52;15.18;;;;;;;8.83;100.00;102398.84;5093033;28;20475;-45
2023/05/31 03:02:40;;;;;;;18.40;15.50;;;;;;;8.78;100.00;102403.72;5092601;28;20028;-44
2023/05/31 03:05:08;;;;;;;20.67;14.95;;;;;;;8.79;100.00;102400.38;5092519;28;20047;-46
2023/05/31 03:07:34;;;;;;;20.80;15.80;;;;;;;8.77;100.00;102390.78;5092735;28;20021;-46
2023/05/31 03:09:59;;;;;;;18.33;14.75;;;;;;;8.73;100.00;102395.72;5092618;28;20070;-46
2023/05/31 03:12:25;;;;;;;18.40;15.25;;;;;;;8.74;100.00;102396.63;5092150;28;20016;-45
2023/05/31 03:14:50;;;;;;;18.25;15.63;;;;;;;8.71;100.00;102402.47;5093060;28;20020;-45
2023/05/31 03:17:15;;;;;;;17.92;15.13;;;;;;;8.66;100.00;102403.84;5092265;28;20460;-44
2023/05/31 03:19:41;;;;;;;18.17;14.75;;;;;;;8.64;100.00;102404.56;5092021;28;20510;-48
2023/05/31 03:22:06;;;;;;;21.63;16.23;;;;;;;8.66;100.00;102402.94;5092690;28;20028;-45
2023/05/31 03:24:31;;;;;;;21.50;16.77;;;;;;;8.66;100.00;102403.84;5091922;28;20052;-44
2023/05/31 03:26:57;;;;;;;21.20;16.80;;;;;;;8.67;100.00;102402.16;5092741;28;20534;-50
2023/05/31 03:29:22;;;;;;;23.10;16.75;;;;;;;8.65;100.00;102399.50;5092513;28;20572;-49
2023/05/31 03:31:47;;;;;;;22.20;15.82;;;;;;;8.69;100.00;102398.00;5091997;28;20028;-48
2023/05/31 03:34:13;;;;;;;21.23;16.70;;;;;;;8.68;100.00;102397.09;5092751;28;20024;-49
2023/05/31 03:36:38;;;;;;;22.52;16.92;;;;;;;8.71;100.00;102393.84;5092361;28;20048;-47
2023/05/31 03:39:03;;;;;;;23.77;17.83;;;;;;;8.70;100.00;102392.06;5092076;28;20469;-49
2023/05/31 03:41:29;;;;;;;21.90;16.73;;;;;;;8.69;100.00;102383.47;5093813;28;20025;-49
2023/05/31 03:43:54;;;;;;;22.98;17.33;;;;;;;8.72;100.00;102398.19;5096437;28;20036;-50
2023/05/31 03:46:20;;;;;;;22.50;17.67;;;;;;;8.72;100.00;102390.47;5095847;28;20024;-50
2023/05/31 03:48:45;;;;;;;22.77;17.55;;;;;;;8.71;100.00;102386.13;5096615;28;20074;-50
2023/05/31 03:51:10;;;;;;;25.10;18.08;;;;;;;8.68;100.00;102385.94;5096347;28;20065;-49
2023/05/31 03:53:35;;;;;;;24.10;17.88;;;;;;;8.66;100.00;102387.53;5095420;28;20507;-47
2023/05/31 03:56:01;;;;;;;24.70;18.98;;;;;;;8.70;100.00;102390.41;5096495;28;20034;-47
2023/05/31 03:58:26;;;;;;;24.92;18.02;;;;;;;8.71;100.00;102391.28;5095988;28;20016;-49
2023/05/31 04:00:52;;;;;;;23.98;17.48;;;;;;;8.69;100.00;102393.75;5095764;28;20028;-48
2023/05/31 04:03:17;;;;;;;26.48;19.50;;;;;;;8.71;100.00;102392.19;5096011;28;20028;-48
2023/05/31 04:05:43;;;;;;;24.60;17.90;;;;;;;8.71;100.00;102392.19;5095867;28;20024;-48
2023/05/31 04:08:08;;;;;;;26.55;19.08;;;;;;;8.75;100.00;102390.66;5095735;28;20031;-48
2023/05/31 04:10:34;;;;;;;25.98;18.75;;;;;;;8.77;100.00;102396.81;5095778;28;20024;-47
2023/05/31 04:12:59;;;;;;;29.45;20.40;;;;;;;8.79;100.00;102400.38;5095818;28;20039;-47
2023/05/31 04:15:25;;;;;;;24.02;18.63;;;;;;;8.81;100.00;102396.19;5095231;28;20081;-45
2023/05/31 04:17:51;;;;;;;27.08;19.83;;;;;;;8.84;100.00;102388.66;5095948;28;20020;-49
2023/05/31 04:20:16;;;;;;;27.33;19.38;;;;;;;8.86;100.00;102387.06;5095186;28;20040;-47
2023/05/31 04:22:42;;;;;;;28.60;20.15;;;;;;;8.92;100.00;102386.53;5095752;28;20028;-49
2023/05/31 04:25:09;;;;;;;30.20;19.73;;;;;;;8.96;100.00;102387.63;5095983;28;20020;-48
2023/05/31 04:27:38;;;;;;;26.95;20.48;;;;;;;8.98;100.00;102392.06;5095424;28;20032;-49
2023/05/31 04:30:05;;;;;;;26.58;19.58;;;;;;;9.02;100.00;102393.16;5095229;28;20368;-48
2023/05/31 04:32:34;;;;;;;29.30;21.43;;;;;;;9.06;100.00;102395.09;5095415;28;20031;-48
2023/05/31 04:35:05;;;;;;;31.55;20.90;;;;;;;9.12;100.00;102394.63;5094731;28;20044;-47
2023/05/31 04:37:32;;;;;;;31.27;20.42;;;;;;;9.16;100.00;102394.88;5095293;28;20130;-49
2023/05/31 04:39:58;;;;;;;27.75;20.30;;;;;;;9.20;100.00;102394.25;5095677;28;20024;-48
2023/05/31 04:42:24;;;;;;;30.05;21.45;;;;;;;9.26;100.00;102398.00;5094456;28;20467;-49
2023/05/31 04:45:01;;;;;;;31.20;20.92;;;;;;;9.34;100.00;102396.78;5095306;28;20406;-49
2023/05/31 04:47:31;;;;;;;29.03;21.80;;;;;;;9.36;100.00;102398.66;5094841;28;20061;-48
2023/05/31 04:49:57;;;;;;;32.35;21.75;;;;;;;9.42;100.00;102395.53;5095053;28;20111;-49
2023/05/31 04:52:30;;;;;;;30.52;21.65;;;;;;;9.51;100.00;102396.06;5095040;28;20059;-48
2023/05/31 04:54:57;;;;;;;29.40;21.30;;;;;;;9.56;100.00;102394.66;5095115;28;20059;-49
2023/05/31 04:57:23;;;;;;;32.05;22.17;;;;;;;9.64;100.00;102401.97;5094434;28;20091;-44
2023/05/31 04:59:49;;;;;;;28.27;21.45;;;;;;;9.73;100.00;102402.50;5095079;28;20431;-47
2023/05/31 05:02:15;;;;;;;33.50;21.35;;;;;;;9.79;100.00;102408.00;5095055;28;20024;-47
2023/05/31 05:04:40;;;;;;;29.13;21.00;;;;;;;9.84;100.00;102400.56;5094595;28;20065;-47
2023/05/31 05:07:06;;;;;;;32.53;21.92;;;;;;;9.91;100.00;102404.38;5095072;28;20024;-47
2023/05/31 05:09:31;;;;;;;31.90;21.73;;;;;;;10.05;100.00;102404.34;5094393;28;20028;-46
2023/05/31 05:11:57;;;;;;;27.55;20.20;;;;;;;10.11;100.00;102397.75;5094338;28;20024;-47
2023/05/31 05:14:22;;;;;;;28.25;20.58;;;;;;;10.14;100.00;102400.53;5094435;28;20036;-47
2023/05/31 05:16:47;;;;;;;29.10;20.45;;;;;;;10.26;100.00;102393.47;5094479;28;20020;-48
2023/05/31 05:19:13;;;;;;;29.23;21.50;;;;;;;10.35;100.00;102400.81;5094162;28;20055;-48
2023/05/31 05:21:38;;;;;;;29.77;20.80;;;;;;;10.42;100.00;102402.97;5094613;28;20051;-48
2023/05/31 05:24:03;;;;;;;30.80;20.45;;;;;;;10.49;100.00;102399.03;5094061;28;20499;-48
2023/05/31 05:26:29;;;;;;;28.70;20.58;;;;;;;10.58;100.00;102393.50;5094386;28;20016;-48
2023/05/31 05:28:54;;;;;;;28.90;20.13;;;;;;;10.62;100.00;102405.75;5094523;28;20121;-49
2023/05/31 05:31:19;;;;;;;24.83;19.27;;;;;;;10.63;100.00;102410.13;5093265;28;20024;-46
2023/05/31 05:33:45;;;;;;;26.17;18.73;;;;;;;10.69;100.00;102410.41;5094241;28;20055;-47
2023/05/31 05:36:10;;;;;;;25.70;19.45;;;;;;;10.81;100.00;102403.38;5094468;28;20024;-49
2023/05/31 05:38:35;;;;;;;27.50;19.83;;;;;;;10.95;100.00;102413.53;5093734;28;20020;-48
2023/05/31 05:41:01;;;;;;;29.88;20.08;;;;;;;10.96;100.00;102407.56;5094509;28;20538;-49
2023/05/31 05:43:28;;;;;;;21.67;17.30;;;;;;;11.00;100.00;102414.66;5093810;28;20027;-50
2023/05/31 05:45:53;;;;;;;;;;;;;;;11.10;100.00;102422.06;5094119;28;20032;-48
2023/05/31 05:48:19;;;;;;;23.97;17.93;;;;;;;11.27;100.00;102419.50;5094124;28;20299;-50
2023/05/31 05:50:45;;;;;;;24.27;17.70;;;;;;;11.37;100.00;102421.75;5094032;28;20776;-50
2023/05/31 05:53:10;;;;;;;22.20;17.33;;;;;;;11.53;100.00;102411.41;5093586;28;20035;-50
2023/05/31 05:55:36;;;;;;;25.80;18.90;;;;;;;11.62;100.00;102410.97;5094009;28;20028;-50
2023/05/31 05:58:02;;;;;;;24.33;18.25;;;;;;;11.76;100.00;102409.09;5093888;28;20016;-48
2023/05/31 06:00:28;;;;;;;29.27;18.60;;;;;;;11.83;100.00;102403.41;5093034;28;20487;-48
2023/05/31 06:02:53;;;;;;;23.48;17.85;;;;;;;11.88;100.00;102405.31;5094057;28;20372;-46
2023/05/31 06:05:25;;;;;;;24.98;18.17;;;;;;;11.99;100.00;102411.94;5092929;28;20474;-51
2023/05/31 06:07:51;;;;;;;25.05;17.52;;;;;;;12.15;100.00;102421.34;5093408;28;20455;-45
2023/05/31 06:10:16;;;;;;;25.33;16.98;;;;;;;12.23;100.00;102413.97;5093577;28;20077;-49
2023/05/31 06:12:41;;;;;;;24.05;16.58;;;;;;;12.25;100.00;102420.06;5093397;28;20028;-48
2023/05/31 06:15:07;;;;;;;26.25;17.48;;;;;;;12.42;100.00;102414.03;5093191;28;20028;-48
2023/05/31 06:17:32;;;;;;;23.08;17.27;;;;;;;12.61;100.00;102417.47;5093592;28;20031;-49
2023/05/31 06:19:58;;;;;;;22.17;16.55;;;;;;;12.65;100.00;102417.69;5093212;28;20040;-49
2023/05/31 06:22:23;;;;;;;26.08;16.40;;;;;;;12.66;100.00;102415.97;5092822;28;20483;-48
2023/05/31 06:24:48;;;;;;;25.83;16.35;;;;;;;12.74;100.00;102419.78;5093547;28;20062;-48
2023/05/31 06:27:14;;;;;;;22.50;16.92;;;;;;;12.88;100.00;102424.72;5093014;28;20031;-49
2023/05/31 06:29:39;;;;;;;22.85;16.27;;;;;;;12.92;100.00;102424.91;5092504;28;20075;-48
2023/05/31 06:32:05;;;;;;;21.25;16.25;;;;;;;13.05;100.00;102421.16;5093492;28;20107;-45
2023/05/31 06:34:30;;;;;;;27.40;16.88;;;;;;;13.25;100.00;102428.97;5092389;28;20034;-49
2023/05/31 06:36:56;;;;;;;24.55;16.02;;;;;;;13.31;100.00;102430.13;5093399;28;20081;-46
2023/05/31 06:39:21;;;;;;;20.48;15.95;;;;;;;13.40;100.00;102427.06;5092711;28;20086;-49
2023/05/31 06:41:47;;;;;;;22.35;16.52;;;;;;;13.32;100.00;102420.63;5092777;28;20056;-45
2023/05/31 06:44:12;;;;;;;22.45;16.10;;;;;;;13.39;100.00;102420.13;5093129;28;20073;-46
2023/05/31 06:46:37;;;;;;;23.25;16.40;;;;;;;13.59;100.00;102420.97;5092464;28;20035;-48
2023/05/31 06:49:02;;;;;;;25.23;16.27;;;;;;;13.56;100.00;102425.16;5092586;28;20028;-48
2023/05/31 06:51:28;;;;;;;20.52;15.25;;;;;;;13.73;100.00;102431.91;5093051;28;20024;-48
2023/05/31 06:53:53;;;;;;;23.27;15.82;;;;;;;13.76;100.00;102428.56;5092983;28;20063;-45
2023/05/31 06:56:18;;;;;;;20.73;16.20;;;;;;;13.77;100.00;102428.63;5092182;28;20077;-45
2023/05/31 06:58:45;;;;;;;21.60;15.20;;;;;;;13.95;100.00;102425.03;5092914;28;20032;-47
2023/05/31 07:01:11;;;;;;;20.58;15.18;;;;;;;14.00;100.00;102426.09;5093008;28;20024;-48
2023/05/31 07:03:37;;;;;;;21.17;14.75;;;;;;;14.14;100.00;102421.47;5092257;28;20031;-46
2023/05/31 07:06:02;;;;;;;20.30;14.35;;;;;;;14.30;100.00;102429.03;5093138;28;20024;-49
2023/05/31 07:08:27;;;;;;;18.77;14.20;;;;;;;14.42;100.00;102428.66;5092420;28;20035;-49
2023/05/31 07:10:53;;;;;;;22.35;14.48;;;;;;;14.49;97.58;102425.44;5092317;28;20074;-50
2023/05/31 07:13:19;;;;;;;21.38;13.95;;;;;;;14.50;96.34;102431.53;5092386;28;20028;-47
2023/05/31 07:15:44;;;;;;;20.85;13.23;;;;;;;14.61;97.83;102426.75;5092752;28;20031;-49
2023/05/31 07:18:10;;;;;;;18.83;13.52;;;;;;;14.77;98.66;102420.47;5096489;28;20386;-50
2023/05/31 07:20:35;;;;;;;22.48;14.30;;;;;;;14.75;95.73;102423.00;5096752;28;20081;-48
2023/05/31 07:23:00;;;;;;;21.63;14.45;;;;;;;14.84;95.46;102419.00;5096872;28;20028;-47
2023/05/31 07:25:26;;;;;;;19.42;13.40;;;;;;;14.95;96.27;102426.34;5096044;28;20031;-48
2023/05/31 07:27:51;;;;;;;21.15;13.93;;;;;;;15.03;95.18;102418.84;5096785;28;20039;-47
2023/05/31 07:30:16;;;;;;;21.25;13.38;;;;;;;15.08;94.50;102417.31;5096510;28;20024;-48
2023/05/31 07:32:42;;;;;;;21.00;12.82;;;;;;;15.13;92.29;102407.97;5096266;28;20016;-48
2023/05/31 07:35:07;;;;;;;21.65;13.15;;;;;;;15.22;91.31;102414.31;5096839;28;20020;-49
2023/05/31 07:37:32;;;;;;;18.92;13.70;;;;;;;15.32;90.58;102406.00;5096074;28;20024;-48
2023/05/31 07:39:59;;;;;;;20.80;13.93;;;;;;;15.44;90.90;102403.84;5096263;28;20027;-48
2023/05/31 07:42:24;;;;;;;17.80;13.20;;;;;;;15.54;90.41;102396.34;5096387;28;20028;-49
2023/05/31 07:44:50;;;;;;;20.50;13.75;;;;;;;15.63;90.00;102400.16;5096274;28;20068;-47
2023/05/31 07:47:16;;;;;;;20.55;13.30;;;;;;;15.82;91.24;102408.59;5096413;28;20413;-45
2023/05/31 07:49:41;;;;;;;20.58;13.48;;;;;;;15.93;90.12;102407.22;5096490;28;20376;-49
2023/05/31 07:52:07;;;;;;;20.58;12.63;;;;;;;16.05;87.93;102406.75;5096021;28;20437;-46
2023/05/31 07:54:32;;;;;;;17.05;12.73;;;;;;;16.15;88.31;102396.63;5096105;28;20028;-47
2023/05/31 07:56:57;;;;;;;18.45;12.60;;;;;;;16.07;84.91;102397.25;5096086;28;20024;-48
2023/05/31 07:59:23;;;;;;;19.73;12.20;;;;;;;16.43;88.42;102395.75;5095645;28;20051;-49
2023/05/31 08:01:49;;;;;;;19.33;13.00;;;;;;;16.63;87.55;102393.75;5096291;28;20020;-48
2023/05/31 08:04:15;;;;;;;24.65;12.77;;;;;;;16.76;86.29;102392.41;5096126;28;20216;-49
2023/05/31 08:06:41;;;;;;;18.40;12.95;;;;;;;16.96;86.85;102390.38;5095717;28;20032;-45
2023/05/31 08:09:07;;;;;;;21.17;12.30;;;;;;;16.96;84.00;102390.38;5096163;28;20066;-48
2023/05/31 08:11:35;;;;;;;16.15;11.80;;;;;;;17.18;84.99;102393.56;5095540;28;20016;-49
2023/05/31 08:14:01;;;;;;;19.33;11.95;;;;;;;17.10;81.92;102388.16;5095595;28;20031;-46
2023/05/31 08:16:27;;;;;;;18.10;11.88;;;;;;;17.26;81.25;102384.22;5095870;28;20043;-50
2023/05/31 08:18:52;;;;;;;17.45;11.35;;;;;;;17.39;81.50;102382.81;5095637;28;20499;-49
2023/05/31 08:21:17;;;;;;;18.45;11.63;;;;;;;17.50;81.10;102378.78;5095117;28;20387;-48
2023/05/31 08:23:43;;;;;;;20.50;11.68;;;;;;;17.71;81.52;102383.63;5095920;28;20103;-48
2023/05/31 08:26:08;;;;;;;17.92;11.13;;;;;;;17.86;78.40;102382.25;5095524;28;20061;-49
2023/05/31 08:28:34;;;;;;;17.75;11.25;;;;;;;17.98;78.94;102386.91;5094620;28;20039;-49
2023/05/31 08:30:59;;;;;;;17.27;11.15;;;;;;;17.92;74.44;102387.59;5095917;28;20027;-48
2023/05/31 08:33:29;;;;;;;20.05;11.77;;;;;;;18.16;79.22;102381.25;5095283;28;20028;-45
2023/05/31 08:35:59;;;;;;;17.75;11.52;;;;;;;18.24;75.29;102377.06;5095222;28;20024;-44
2023/05/31 08:38:27;;;;;;;17.75;10.30;;;;;;;18.30;73.48;102378.94;5095280;28;20506;-48
2023/05/31 08:40:53;;;;;;;18.95;10.73;;;;;;;18.38;74.31;102375.63;5095266;28;20020;-49
2023/05/31 08:43:21;;;;;;;18.33;10.35;;;;;;;18.46;71.09;102377.53;5094741;28;20387;-47
2023/05/31 08:45:49;;;;;;;17.02;9.93;;;;;;;18.60;72.14;102378.72;5095252;28;20024;-46
2023/05/31 08:48:24;;;;;;;14.82;9.32;;;;;;;18.72;70.76;102378.97;5094931;28;20024;-49
2023/05/31 08:50:51;;;;;;;16.55;9.98;;;;;;;18.89;71.77;102386.28;5095217;28;20031;-48
2023/05/31 08:53:18;;;;;;;17.13;9.35;;;;;;;19.03;70.72;102378.72;5094592;28;20081;-49
2023/05/31 08:55:46;;;;;;;16.77;11.07;;;;;;;19.13;71.40;102377.16;5094982;28;20024;-48
2023/05/31 08:58:12;;;;;;;;;;;;;;;19.26;76.25;102376.53;5095770;28;20285;-47
2023/05/31 09:00:37;;;;;;;16.58;8.90;;;;;;;19.46;70.17;102371.66;5094709;28;19912;-48
2023/05/31 09:03:06;;;;;;;17.52;8.82;;;;;;;19.61;67.33;102372.75;5094521;28;20047;-45
2023/05/31 09:05:31;;;;;;;13.77;7.90;;;;;;;19.69;65.50;102365.91;5094827;28;20032;-50
2023/05/31 09:07:59;;;;;;;16.58;7.95;;;;;;;19.83;64.80;102368.78;5094668;28;20028;-45
2023/05/31 09:10:25;;;;;;;16.05;9.60;;;;;;;19.97;66.03;102366.38;5094226;28;20066;-45
2023/05/31 09:12:50;;;;;;;16.63;9.35;;;;;;;20.17;64.43;102364.94;5094759;28;20056;-49
2023/05/31 09:15:15;;;;;;;15.38;8.75;;;;;;;20.22;62.97;102365.88;5094398;28;20532;-44
2023/05/31 09:17:45;;;;;;;14.90;7.43;;;;;;;20.34;62.67;102366.91;5094176;28;20024;-49
2023/05/31 09:20:11;;;;;;;15.85;8.18;;;;;;;20.50;61.65;102366.25;5094668;28;20039;-47
2023/05/31 09:22:37;;;;;;;13.20;7.43;;;;;;;20.56;57.58;102358.44;5094124;28;20028;-49
2023/05/31 09:25:02;;;;;;;17.30;8.93;;;;;;;20.87;63.01;102364.06;5094315;28;20020;-49
2023/05/31 09:27:35;;;;;;;12.65;8.15;;;;;;;20.88;59.15;102359.72;5094190;28;20073;-46
2023/05/31 09:30:05;;;;;;;13.65;8.52;;;;;;;21.13;62.17;102349.47;5094512;28;20016;-49
2023/05/31 09:32:30;;;;;;;15.60;8.90;;;;;;;21.11;58.49;102348.56;5093574;28;20412;-48
2023/05/31 09:35:10;;;;;;;16.33;8.38;;;;;;;21.24;60.35;102342.59;5094101;28;20573;-50
2023/05/31 09:37:43;;;;;;;14.00;6.35;;;;;;;21.35;56.24;102354.03;5094047;28;20032;-50
2023/05/31 09:40:08;;;;;;;14.07;6.68;;;;;;;21.38;53.95;102340.97;5093627;28;20028;-50
2023/05/31 09:42:34;;;;;;;15.23;7.68;;;;;;;21.64;55.15;102345.59;5093910;28;20069;-49
2023/05/31 09:44:59;;;;;;;19.50;9.70;;;;;;;21.79;55.57;102334.31;5093798;28;20027;-48
2023/05/31 09:47:25;;;;;;;13.48;8.80;;;;;;;22.07;55.85;102326.59;5093838;28;20043;-50
2023/05/31 09:49:54;;;;;;;14.90;9.25;;;;;;;22.37;56.37;102335.53;5093854;28;20407;-49
2023/05/31 09:52:27;;;;;;;13.95;7.72;;;;;;;22.46;52.72;102325.03;5093473;28;20028;-50
2023/05/31 09:54:55;;;;;;;15.27;8.85;;;;;;;22.73;52.70;102335.66;5094156;28;20024;-50
2023/05/31 09:57:40;;;;;;;17.58;7.43;;;;;;;22.99;52.70;102341.81;5093407;28;20472;-50
2023/05/31 10:00:16;;;;;;;12.90;7.38;;;;;;;23.12;47.89;102328.69;5093472;28;20111;-47
2023/05/31 10:02:46;;;;;;;17.13;7.57;;;;;;;23.22;48.94;102338.38;5094169;28;20039;-50
2023/05/31 10:05:12;;;;;;;10.48;7.10;;;;;;;23.08;46.25;102330.44;5093990;28;20024;-49
2023/05/31 10:07:44;;;;;;;11.35;6.72;;;;;;;23.75;47.58;102322.56;5093085;28;20055;-45
2023/05/31 10:10:11;;;;;;;11.90;6.38;;;;;;;24.34;46.21;102323.28;5093624;28;20510;-48
2023/05/31 10:12:48;;;;;;;14.63;6.38;;;;;;;24.81;45.48;102330.06;5092893;28;20036;-46
2023/05/31 10:15:15;;;;;;;;;;;;;;;24.92;48.59;102324.75;5094356;28;20036;-49
2023/05/31 10:17:50;;;;;;;15.98;5.78;;;;;;;25.60;41.75;102326.84;5093546;28;19912;-49
2023/05/31 10:20:17;;;;;;;11.10;4.93;;;;;;;26.62;38.48;102319.47;5092646;28;20105;-44
2023/05/31 10:22:44;;;;;;;7.68;4.28;;;;;;;27.23;37.86;102328.28;5093540;28;20036;-44
2023/05/31 10:25:10;;;;;;;;;;;;;;;27.78;40.32;102320.25;5093959;28;20020;-49
2023/05/31 10:27:38;;;;;;;9.95;5.25;;;;;;;28.58;33.86;102315.94;5092886;28;19963;-48
2023/05/31 10:30:04;;;;;;;9.73;5.38;;;;;;;28.97;33.52;102319.50;5093253;28;20038;-49
2023/05/31 10:32:40;;;;;;;10.50;5.10;;;;;;;29.50;32.08;102313.75;5092929;28;20107;-50
2023/05/31 10:35:06;;;;;;;9.70;4.60;;;;;;;29.34;31.86;102303.53;5092839;28;20266;-49
2023/05/31 10:37:32;;;;;;;14.05;4.20;;;;;;;30.11;30.56;102297.00;5092928;28;20020;-50
2023/05/31 10:40:19;;;;;;;6.93;3.70;;;;;;;30.24;31.07;102294.84;5093002;28;20054;-49
2023/05/31 10:42:59;;;;;;;13.88;3.42;;;;;;;30.24;28.72;102295.75;5092806;28;20028;-47
2023/05/31 10:45:42;;;;;;;10.52;4.10;;;;;;;30.67;30.24;102299.72;5092788;28;20020;-47
2023/05/31 10:48:22;;;;;;;11.32;4.38;;;;;;;30.77;30.08;102294.09;5092894;28;20026;-49
2023/05/31 10:50:55;;;;;;;11.73;4.07;;;;;;;30.80;29.44;102299.34;5093051;28;20020;-50
2023/05/31 10:53:21;;;;;;;9.88;3.38;;;;;;;30.68;28.15;102293.50;5092637;28;20103;-51
2023/05/31 10:55:47;;;;;;;8.05;3.33;;;;;;;31.16;25.97;102291.91;5092664;28;20490;-49
2023/05/31 10:58:26;;;;;;;8.17;2.40;;;;;;;31.89;27.38;102286.66;5092919;28;20024;-50
2023/05/31 11:00:54;;;;;;;11.65;3.40;;;;;;;31.33;25.31;102286.00;5093199;28;20295;-49
2023/05/31 11:03:24;;;;;;;7.75;3.45;;;;;;;31.84;25.47;102280.63;5092385;28;20036;-49
2023/05/31 11:06:01;;;;;;;10.45;3.00;;;;;;;31.75;26.61;102287.22;5093071;28;20016;-50
2023/05/31 11:08:29;;;;;;;;;;;;;;;32.37;28.99;102282.22;5093079;28;20051;-50
2023/05/31 11:11:49;;;;;;;7.05;2.63;;;;;;;32.42;26.82;102280.22;5092284;28;19912;-47